sensor_id;sensor_type;location;lat;lon;timestamp;temperature;humidity
75738;DHT22;77420;45.638;13.764;2024-03-25T00:00:13;19.80;45.20
75738;DHT22;77420;45.638;13.764;2024-03-25T00:02:40;19.80;45.00
75738;DHT22;77420;45.638;13.764;2024-03-25T00:05:06;19.80;45.20
75738;DHT22;77420;45.638;13.764;2024-03-25T00:07:38;19.80;45.00
75738;DHT22;77420;45.638;13.764;2024-03-25T00:10:04;19.80;45.00
75738;DHT22;77420;45.638;13.764;2024-03-25T00:12:34;19.80;45.00
75738;DHT22;77420;45.638;13.764;2024-03-25T00:15:00;19.70;45.00
75738;DHT22;77420;45.638;13.764;2024-03-25T00:17:26;19.80;44.90
75738;DHT22;77420;45.638;13.764;2024-03-25T00:19:52;19.80;45.00
75738;DHT22;77420;45.638;13.764;2024-03-25T00:22:19;19.80;44.90
75738;DHT22;77420;45.638;13.764;2024-03-25T00:24:48;19.80;45.00
75738;DHT22;77420;45.638;13.764;2024-03-25T00:27:15;19.80;45.00
75738;DHT22;77420;45.638;13.764;2024-03-25T00:29:41;19.70;45.00
75738;DHT22;77420;45.638;13.764;2024-03-25T00:32:07;19.70;45.00
75738;DHT22;77420;45.638;13.764;2024-03-25T00:34:33;19.70;45.00
75738;DHT22;77420;45.638;13.764;2024-03-25T00:37:00;19.70;45.10
75738;DHT22;77420;45.638;13.764;2024-03-25T00:39:26;19.70;45.10
75738;DHT22;77420;45.638;13.764;2024-03-25T00:41:53;19.70;45.00
75738;DHT22;77420;45.638;13.764;2024-03-25T00:44:18;19.70;45.00
75738;DHT22;77420;45.638;13.764;2024-03-25T00:46:44;19.70;45.00
75738;DHT22;77420;45.638;13.764;2024-03-25T00:49:10;19.70;45.10
75738;DHT22;77420;45.638;13.764;2024-03-25T00:51:37;19.70;45.00
75738;DHT22;77420;45.638;13.764;2024-03-25T00:54:03;19.70;44.90
75738;DHT22;77420;45.638;13.764;2024-03-25T00:56:30;19.70;44.90
75738;DHT22;77420;45.638;13.764;2024-03-25T00:58:56;19.70;44.90
75738;DHT22;77420;45.638;13.764;2024-03-25T01:01:23;19.70;44.80
75738;DHT22;77420;45.638;13.764;2024-03-25T01:03:49;19.70;44.80
75738;DHT22;77420;45.638;13.764;2024-03-25T01:06:15;19.60;45.00
75738;DHT22;77420;45.638;13.764;2024-03-25T01:08:41;19.60;44.90
75738;DHT22;77420;45.638;13.764;2024-03-25T01:11:06;19.70;44.80
75738;DHT22;77420;45.638;13.764;2024-03-25T01:13:32;19.60;45.10
75738;DHT22;77420;45.638;13.764;2024-03-25T01:15:58;19.60;45.00
75738;DHT22;77420;45.638;13.764;2024-03-25T01:18:24;19.60;44.90
75738;DHT22;77420;45.638;13.764;2024-03-25T01:20:50;19.60;45.20
75738;DHT22;77420;45.638;13.764;2024-03-25T01:23:16;19.60;45.00
75738;DHT22;77420;45.638;13.764;2024-03-25T01:25:41;19.60;45.00
75738;DHT22;77420;45.638;13.764;2024-03-25T01:28:07;19.60;45.00
75738;DHT22;77420;45.638;13.764;2024-03-25T01:30:33;19.60;44.80
75738;DHT22;77420;45.638;13.764;2024-03-25T01:33:01;19.60;44.90
75738;DHT22;77420;45.638;13.764;2024-03-25T01:35:27;19.60;45.00
75738;DHT22;77420;45.638;13.764;2024-03-25T01:37:53;19.60;45.00
75738;DHT22;77420;45.638;13.764;2024-03-25T01:40:18;19.60;45.10
75738;DHT22;77420;45.638;13.764;2024-03-25T01:43:01;19.60;45.00
75738;DHT22;77420;45.638;13.764;2024-03-25T01:45:30;19.60;45.00
75738;DHT22;77420;45.638;13.764;2024-03-25T01:47:57;19.60;44.80
75738;DHT22;77420;45.638;13.764;2024-03-25T01:50:24;19.60;44.70
75738;DHT22;77420;45.638;13.764;2024-03-25T01:52:51;19.60;44.70
75738;DHT22;77420;45.638;13.764;2024-03-25T01:55:20;19.60;44.60
75738;DHT22;77420;45.638;13.764;2024-03-25T01:57:47;19.60;44.70
75738;DHT22;77420;45.638;13.764;2024-03-25T02:00:13;19.60;44.80
75738;DHT22;77420;45.638;13.764;2024-03-25T02:02:42;19.60;44.90
75738;DHT22;77420;45.638;13.764;2024-03-25T02:05:10;19.60;44.90
75738;DHT22;77420;45.638;13.764;2024-03-25T02:07:36;19.60;45.00
75738;DHT22;77420;45.638;13.764;2024-03-25T02:10:03;19.50;44.90
75738;DHT22;77420;45.638;13.764;2024-03-25T02:12:33;19.50;45.00
75738;DHT22;77420;45.638;13.764;2024-03-25T02:14:59;19.60;44.90
75738;DHT22;77420;45.638;13.764;2024-03-25T02:17:25;19.50;44.90
75738;DHT22;77420;45.638;13.764;2024-03-25T02:19:51;19.50;45.00
75738;DHT22;77420;45.638;13.764;2024-03-25T02:22:17;19.50;44.90
75738;DHT22;77420;45.638;13.764;2024-03-25T02:24:45;19.50;45.00
75738;DHT22;77420;45.638;13.764;2024-03-25T02:27:12;19.50;45.00
75738;DHT22;77420;45.638;13.764;2024-03-25T02:29:41;19.50;45.00
75738;DHT22;77420;45.638;13.764;2024-03-25T02:32:07;19.50;45.10
75738;DHT22;77420;45.638;13.764;2024-03-25T02:34:41;19.50;45.00
75738;DHT22;77420;45.638;13.764;2024-03-25T02:37:08;19.50;44.90
75738;DHT22;77420;45.638;13.764;2024-03-25T02:39:35;19.50;44.90
75738;DHT22;77420;45.638;13.764;2024-03-25T02:42:01;19.50;45.00
75738;DHT22;77420;45.638;13.764;2024-03-25T02:44:27;19.50;44.80
75738;DHT22;77420;45.638;13.764;2024-03-25T02:46:53;19.50;44.80
75738;DHT22;77420;45.638;13.764;2024-03-25T02:49:19;19.50;44.80
75738;DHT22;77420;45.638;13.764;2024-03-25T02:51:46;19.50;44.70
75738;DHT22;77420;45.638;13.764;2024-03-25T02:54:12;19.50;44.80
75738;DHT22;77420;45.638;13.764;2024-03-25T02:56:40;19.50;44.90
75738;DHT22;77420;45.638;13.764;2024-03-25T02:59:06;19.50;44.90
75738;DHT22;77420;45.638;13.764;2024-03-25T03:01:32;19.50;44.90
75738;DHT22;77420;45.638;13.764;2024-03-25T03:03:58;19.50;45.00
75738;DHT22;77420;45.638;13.764;2024-03-25T03:06:24;19.50;45.10
75738;DHT22;77420;45.638;13.764;2024-03-25T03:08:49;19.50;45.10
75738;DHT22;77420;45.638;13.764;2024-03-25T03:11:16;19.50;45.10
75738;DHT22;77420;45.638;13.764;2024-03-25T03:13:41;19.50;45.20
75738;DHT22;77420;45.638;13.764;2024-03-25T03:16:07;19.40;45.20
75738;DHT22;77420;45.638;13.764;2024-03-25T03:18:32;19.50;45.20
75738;DHT22;77420;45.638;13.764;2024-03-25T03:20:58;19.50;45.30
75738;DHT22;77420;45.638;13.764;2024-03-25T03:23:24;19.40;45.20
75738;DHT22;77420;45.638;13.764;2024-03-25T03:25:50;19.40;45.30
75738;DHT22;77420;45.638;13.764;2024-03-25T03:28:16;19.40;45.30
75738;DHT22;77420;45.638;13.764;2024-03-25T03:30:42;19.40;45.30
75738;DHT22;77420;45.638;13.764;2024-03-25T03:33:08;19.40;45.30
75738;DHT22;77420;45.638;13.764;2024-03-25T03:35:34;19.40;45.10
75738;DHT22;77420;45.638;13.764;2024-03-25T03:38:00;19.40;45.20
75738;DHT22;77420;45.638;13.764;2024-03-25T03:40:26;19.40;45.10
75738;DHT22;77420;45.638;13.764;2024-03-25T03:42:52;19.40;45.20
75738;DHT22;77420;45.638;13.764;2024-03-25T03:45:17;19.40;45.20
75738;DHT22;77420;45.638;13.764;2024-03-25T03:47:43;19.40;45.10
75738;DHT22;77420;45.638;13.764;2024-03-25T03:50:10;19.40;45.10
75738;DHT22;77420;45.638;13.764;2024-03-25T03:52:36;19.40;45.20
75738;DHT22;77420;45.638;13.764;2024-03-25T03:55:01;19.40;45.10
75738;DHT22;77420;45.638;13.764;2024-03-25T03:57:27;19.40;45.00
75738;DHT22;77420;45.638;13.764;2024-03-25T03:59:53;19.40;45.00
75738;DHT22;77420;45.638;13.764;2024-03-25T04:02:20;19.40;45.00
75738;DHT22;77420;45.638;13.764;2024-03-25T04:04:46;19.40;45.00
75738;DHT22;77420;45.638;13.764;2024-03-25T04:07:11;19.40;44.80
75738;DHT22;77420;45.638;13.764;2024-03-25T04:09:37;19.40;44.80
75738;DHT22;77420;45.638;13.764;2024-03-25T04:12:03;19.40;44.70
75738;DHT22;77420;45.638;13.764;2024-03-25T04:14:28;19.40;44.70
75738;DHT22;77420;45.638;13.764;2024-03-25T04:16:54;19.40;44.70
75738;DHT22;77420;45.638;13.764;2024-03-25T04:19:23;19.40;44.60
75738;DHT22;77420;45.638;13.764;2024-03-25T04:21:49;19.40;44.60
75738;DHT22;77420;45.638;13.764;2024-03-25T04:24:15;19.40;44.60
75738;DHT22;77420;45.638;13.764;2024-03-25T04:26:41;19.40;44.60
75738;DHT22;77420;45.638;13.764;2024-03-25T04:29:06;19.40;44.60
75738;DHT22;77420;45.638;13.764;2024-03-25T04:31:32;19.40;44.50
75738;DHT22;77420;45.638;13.764;2024-03-25T04:33:58;19.40;44.50
75738;DHT22;77420;45.638;13.764;2024-03-25T04:36:23;19.40;44.60
75738;DHT22;77420;45.638;13.764;2024-03-25T04:38:49;19.40;44.60
75738;DHT22;77420;45.638;13.764;2024-03-25T04:41:15;19.40;44.60
75738;DHT22;77420;45.638;13.764;2024-03-25T04:43:41;19.40;44.60
75738;DHT22;77420;45.638;13.764;2024-03-25T04:46:06;19.40;44.50
75738;DHT22;77420;45.638;13.764;2024-03-25T04:48:32;19.40;44.50
75738;DHT22;77420;45.638;13.764;2024-03-25T04:50:58;19.40;44.50
75738;DHT22;77420;45.638;13.764;2024-03-25T04:53:24;19.40;44.50
75738;DHT22;77420;45.638;13.764;2024-03-25T04:55:49;19.40;44.50
75738;DHT22;77420;45.638;13.764;2024-03-25T04:58:15;19.40;44.40
75738;DHT22;77420;45.638;13.764;2024-03-25T05:00:41;19.40;44.40
75738;DHT22;77420;45.638;13.764;2024-03-25T05:03:06;19.40;44.30
75738;DHT22;77420;45.638;13.764;2024-03-25T05:05:32;19.40;44.30
75738;DHT22;77420;45.638;13.764;2024-03-25T05:07:58;19.40;44.40
75738;DHT22;77420;45.638;13.764;2024-03-25T05:10:23;19.40;44.40
75738;DHT22;77420;45.638;13.764;2024-03-25T05:12:49;19.40;44.30
75738;DHT22;77420;45.638;13.764;2024-03-25T05:15:15;19.40;44.30
75738;DHT22;77420;45.638;13.764;2024-03-25T05:17:41;19.40;44.40
75738;DHT22;77420;45.638;13.764;2024-03-25T05:20:07;19.30;44.30
75738;DHT22;77420;45.638;13.764;2024-03-25T05:22:34;19.30;44.40
75738;DHT22;77420;45.638;13.764;2024-03-25T05:25:00;19.30;44.30
75738;DHT22;77420;45.638;13.764;2024-03-25T05:27:26;19.30;44.30
75738;DHT22;77420;45.638;13.764;2024-03-25T05:29:52;19.30;44.20
75738;DHT22;77420;45.638;13.764;2024-03-25T05:32:18;19.40;44.20
75738;DHT22;77420;45.638;13.764;2024-03-25T05:34:47;19.40;44.10
75738;DHT22;77420;45.638;13.764;2024-03-25T05:37:13;19.40;44.00
75738;DHT22;77420;45.638;13.764;2024-03-25T05:39:39;19.40;44.10
75738;DHT22;77420;45.638;13.764;2024-03-25T05:42:05;19.40;44.10
75738;DHT22;77420;45.638;13.764;2024-03-25T05:44:31;19.40;44.10
75738;DHT22;77420;45.638;13.764;2024-03-25T05:46:57;19.40;44.10
75738;DHT22;77420;45.638;13.764;2024-03-25T05:49:22;19.40;44.10
75738;DHT22;77420;45.638;13.764;2024-03-25T05:51:48;19.40;44.10
75738;DHT22;77420;45.638;13.764;2024-03-25T05:54:14;19.40;44.10
75738;DHT22;77420;45.638;13.764;2024-03-25T05:56:40;19.40;44.00
75738;DHT22;77420;45.638;13.764;2024-03-25T05:59:05;19.40;44.00
75738;DHT22;77420;45.638;13.764;2024-03-25T06:01:31;19.40;44.00
75738;DHT22;77420;45.638;13.764;2024-03-25T06:03:57;19.40;43.90
75738;DHT22;77420;45.638;13.764;2024-03-25T06:06:23;19.40;43.90
75738;DHT22;77420;45.638;13.764;2024-03-25T06:08:49;19.40;43.90
75738;DHT22;77420;45.638;13.764;2024-03-25T06:11:16;19.40;43.90
75738;DHT22;77420;45.638;13.764;2024-03-25T06:13:46;19.40;43.80
75738;DHT22;77420;45.638;13.764;2024-03-25T06:16:13;19.50;43.80
75738;DHT22;77420;45.638;13.764;2024-03-25T06:18:39;19.40;43.70
75738;DHT22;77420;45.638;13.764;2024-03-25T06:21:06;19.50;43.70
75738;DHT22;77420;45.638;13.764;2024-03-25T06:23:32;19.40;44.10
75738;DHT22;77420;45.638;13.764;2024-03-25T06:25:57;19.40;44.10
75738;DHT22;77420;45.638;13.764;2024-03-25T06:28:23;19.40;43.40
75738;DHT22;77420;45.638;13.764;2024-03-25T06:30:50;19.40;42.80
75738;DHT22;77420;45.638;13.764;2024-03-25T06:33:35;19.40;42.30
75738;DHT22;77420;45.638;13.764;2024-03-25T06:36:28;19.40;42.10
75738;DHT22;77420;45.638;13.764;2024-03-25T06:38:54;19.40;42.00
75738;DHT22;77420;45.638;13.764;2024-03-25T06:41:20;19.40;41.90
75738;DHT22;77420;45.638;13.764;2024-03-25T06:43:47;19.40;41.90
75738;DHT22;77420;45.638;13.764;2024-03-25T06:46:13;19.40;42.00
75738;DHT22;77420;45.638;13.764;2024-03-25T06:48:39;19.40;41.40
75738;DHT22;77420;45.638;13.764;2024-03-25T06:51:05;19.30;39.60
75738;DHT22;77420;45.638;13.764;2024-03-25T06:53:31;19.20;38.90
75738;DHT22;77420;45.638;13.764;2024-03-25T06:55:58;19.00;36.70
75738;DHT22;77420;45.638;13.764;2024-03-25T06:58:26;18.80;38.90
75738;DHT22;77420;45.638;13.764;2024-03-25T07:00:56;18.70;38.80
75738;DHT22;77420;45.638;13.764;2024-03-25T07:03:26;18.50;37.70
75738;DHT22;77420;45.638;13.764;2024-03-25T07:05:52;18.40;39.40
75738;DHT22;77420;45.638;13.764;2024-03-25T07:08:20;18.50;42.50
75738;DHT22;77420;45.638;13.764;2024-03-25T07:10:47;18.60;41.40
75738;DHT22;77420;45.638;13.764;2024-03-25T07:13:14;18.70;41.50
75738;DHT22;77420;45.638;13.764;2024-03-25T07:15:40;18.80;45.60
75738;DHT22;77420;45.638;13.764;2024-03-25T07:18:12;18.90;42.00
75738;DHT22;77420;45.638;13.764;2024-03-25T07:20:42;19.00;41.70
75738;DHT22;77420;45.638;13.764;2024-03-25T07:23:09;19.00;41.40
75738;DHT22;77420;45.638;13.764;2024-03-25T07:25:35;19.10;41.20
75738;DHT22;77420;45.638;13.764;2024-03-25T07:28:02;19.20;41.60
75738;DHT22;77420;45.638;13.764;2024-03-25T07:30:28;19.20;41.30
75738;DHT22;77420;45.638;13.764;2024-03-25T07:33:00;19.30;41.90
75738;DHT22;77420;45.638;13.764;2024-03-25T07:35:33;19.30;41.70
75738;DHT22;77420;45.638;13.764;2024-03-25T07:37:59;19.40;41.70
75738;DHT22;77420;45.638;13.764;2024-03-25T07:40:25;19.40;41.70
75738;DHT22;77420;45.638;13.764;2024-03-25T07:42:52;19.40;41.90
75738;DHT22;77420;45.638;13.764;2024-03-25T07:45:17;19.40;42.00
75738;DHT22;77420;45.638;13.764;2024-03-25T07:47:43;19.40;41.80
75738;DHT22;77420;45.638;13.764;2024-03-25T07:50:09;19.40;41.90
75738;DHT22;77420;45.638;13.764;2024-03-25T07:52:36;19.50;41.90
75738;DHT22;77420;45.638;13.764;2024-03-25T07:55:11;19.50;41.60
75738;DHT22;77420;45.638;13.764;2024-03-25T07:57:39;19.60;41.40
75738;DHT22;77420;45.638;13.764;2024-03-25T08:00:11;19.60;42.30
75738;DHT22;77420;45.638;13.764;2024-03-25T08:02:37;19.60;42.50
75738;DHT22;77420;45.638;13.764;2024-03-25T08:05:03;19.70;42.40
75738;DHT22;77420;45.638;13.764;2024-03-25T08:07:29;19.80;41.80
75738;DHT22;77420;45.638;13.764;2024-03-25T08:09:54;20.20;40.40
75738;DHT22;77420;45.638;13.764;2024-03-25T08:12:20;20.60;39.30
75738;DHT22;77420;45.638;13.764;2024-03-25T08:14:46;21.00;37.60
75738;DHT22;77420;45.638;13.764;2024-03-25T08:17:12;21.30;36.80
75738;DHT22;77420;45.638;13.764;2024-03-25T08:19:42;21.50;36.10
75738;DHT22;77420;45.638;13.764;2024-03-25T08:22:09;21.70;35.40
75738;DHT22;77420;45.638;13.764;2024-03-25T08:24:35;21.90;35.00
75738;DHT22;77420;45.638;13.764;2024-03-25T08:27:01;22.00;34.30
75738;DHT22;77420;45.638;13.764;2024-03-25T08:29:26;22.10;34.30
75738;DHT22;77420;45.638;13.764;2024-03-25T08:31:52;22.20;34.20
75738;DHT22;77420;45.638;13.764;2024-03-25T08:34:18;22.40;33.70
75738;DHT22;77420;45.638;13.764;2024-03-25T08:36:44;22.50;33.80
75738;DHT22;77420;45.638;13.764;2024-03-25T08:39:11;22.50;33.50
75738;DHT22;77420;45.638;13.764;2024-03-25T08:41:37;22.70;33.80
75738;DHT22;77420;45.638;13.764;2024-03-25T08:44:03;22.70;33.20
75738;DHT22;77420;45.638;13.764;2024-03-25T08:46:29;22.80;32.60
75738;DHT22;77420;45.638;13.764;2024-03-25T08:48:56;23.00;33.20
75738;DHT22;77420;45.638;13.764;2024-03-25T08:51:23;23.10;32.50
75738;DHT22;77420;45.638;13.764;2024-03-25T08:53:49;23.20;32.40
75738;DHT22;77420;45.638;13.764;2024-03-25T08:56:16;23.30;34.30
75738;DHT22;77420;45.638;13.764;2024-03-25T08:58:42;23.40;34.20
75738;DHT22;77420;45.638;13.764;2024-03-25T09:01:08;23.50;34.40
75738;DHT22;77420;45.638;13.764;2024-03-25T09:03:35;23.60;34.80
75738;DHT22;77420;45.638;13.764;2024-03-25T09:06:02;23.80;36.10
75738;DHT22;77420;45.638;13.764;2024-03-25T09:08:27;23.90;35.30
75738;DHT22;77420;45.638;13.764;2024-03-25T09:10:55;24.10;35.50
75738;DHT22;77420;45.638;13.764;2024-03-25T09:13:32;24.20;35.10
75738;DHT22;77420;45.638;13.764;2024-03-25T09:15:58;24.20;34.60
75738;DHT22;77420;45.638;13.764;2024-03-25T09:18:30;24.30;34.80
75738;DHT22;77420;45.638;13.764;2024-03-25T09:20:57;24.20;33.00
75738;DHT22;77420;45.638;13.764;2024-03-25T09:23:22;23.90;30.20
75738;DHT22;77420;45.638;13.764;2024-03-25T09:25:53;23.70;29.50
75738;DHT22;77420;45.638;13.764;2024-03-25T09:28:20;23.40;28.90
75738;DHT22;77420;45.638;13.764;2024-03-25T09:30:48;23.20;28.60
75738;DHT22;77420;45.638;13.764;2024-03-25T09:33:14;23.00;28.70
75738;DHT22;77420;45.638;13.764;2024-03-25T09:35:41;22.80;28.60
75738;DHT22;77420;45.638;13.764;2024-03-25T09:38:11;22.60;28.80
75738;DHT22;77420;45.638;13.764;2024-03-25T09:40:40;22.40;28.50
75738;DHT22;77420;45.638;13.764;2024-03-25T09:43:25;22.40;29.10
75738;DHT22;77420;45.638;13.764;2024-03-25T09:45:54;22.30;30.20
75738;DHT22;77420;45.638;13.764;2024-03-25T09:48:21;22.30;31.40
75738;DHT22;77420;45.638;13.764;2024-03-25T09:50:52;22.40;31.90
75738;DHT22;77420;45.638;13.764;2024-03-25T09:53:19;22.40;32.10
75738;DHT22;77420;45.638;13.764;2024-03-25T09:55:47;22.50;32.10
75738;DHT22;77420;45.638;13.764;2024-03-25T09:58:14;22.50;32.40
75738;DHT22;77420;45.638;13.764;2024-03-25T10:00:41;22.50;33.40
75738;DHT22;77420;45.638;13.764;2024-03-25T10:03:09;22.60;35.00
75738;DHT22;77420;45.638;13.764;2024-03-25T10:05:35;22.60;35.00
75738;DHT22;77420;45.638;13.764;2024-03-25T10:08:05;22.60;34.20
75738;DHT22;77420;45.638;13.764;2024-03-25T10:10:31;22.60;35.50
75738;DHT22;77420;45.638;13.764;2024-03-25T10:12:58;22.60;35.10
75738;DHT22;77420;45.638;13.764;2024-03-25T10:15:27;22.60;34.80
75738;DHT22;77420;45.638;13.764;2024-03-25T10:17:54;22.60;35.10
75738;DHT22;77420;45.638;13.764;2024-03-25T10:20:20;22.60;34.60
75738;DHT22;77420;45.638;13.764;2024-03-25T10:22:46;22.60;34.20
75738;DHT22;77420;45.638;13.764;2024-03-25T10:25:25;22.50;34.20
75738;DHT22;77420;45.638;13.764;2024-03-25T10:27:56;22.50;34.30
75738;DHT22;77420;45.638;13.764;2024-03-25T10:30:23;22.50;34.30
75738;DHT22;77420;45.638;13.764;2024-03-25T10:35:29;22.40;34.20
75738;DHT22;77420;45.638;13.764;2024-03-25T10:38:06;22.40;34.10
75738;DHT22;77420;45.638;13.764;2024-03-25T10:40:36;22.30;34.60
75738;DHT22;77420;45.638;13.764;2024-03-25T10:43:05;22.30;34.10
75738;DHT22;77420;45.638;13.764;2024-03-25T10:45:34;22.30;36.10
75738;DHT22;77420;45.638;13.764;2024-03-25T10:48:24;22.30;35.30
75738;DHT22;77420;45.638;13.764;2024-03-25T10:50:54;22.30;35.90
75738;DHT22;77420;45.638;13.764;2024-03-25T10:53:22;22.30;35.90
75738;DHT22;77420;45.638;13.764;2024-03-25T10:55:54;22.30;35.60
75738;DHT22;77420;45.638;13.764;2024-03-25T10:58:23;22.30;36.90
75738;DHT22;77420;45.638;13.764;2024-03-25T11:00:52;22.30;37.90
75738;DHT22;77420;45.638;13.764;2024-03-25T11:03:25;22.40;38.70
75738;DHT22;77420;45.638;13.764;2024-03-25T11:05:52;22.40;39.20
75738;DHT22;77420;45.638;13.764;2024-03-25T11:08:18;22.50;38.40
75738;DHT22;77420;45.638;13.764;2024-03-25T11:10:47;22.40;38.40
75738;DHT22;77420;45.638;13.764;2024-03-25T11:13:14;22.40;38.60
75738;DHT22;77420;45.638;13.764;2024-03-25T11:15:41;22.40;37.20
75738;DHT22;77420;45.638;13.764;2024-03-25T11:18:16;22.40;37.10
75738;DHT22;77420;45.638;13.764;2024-03-25T11:20:43;22.40;37.30
75738;DHT22;77420;45.638;13.764;2024-03-25T11:23:13;22.40;36.90
75738;DHT22;77420;45.638;13.764;2024-03-25T11:25:40;22.40;36.70
75738;DHT22;77420;45.638;13.764;2024-03-25T11:28:08;22.30;36.50
75738;DHT22;77420;45.638;13.764;2024-03-25T11:30:34;22.40;36.90
75738;DHT22;77420;45.638;13.764;2024-03-25T11:33:02;22.40;37.10
75738;DHT22;77420;45.638;13.764;2024-03-25T11:35:36;22.40;36.60
75738;DHT22;77420;45.638;13.764;2024-03-25T11:38:02;22.40;36.70
75738;DHT22;77420;45.638;13.764;2024-03-25T11:40:28;22.30;36.40
75738;DHT22;77420;45.638;13.764;2024-03-25T11:42:54;22.30;36.70
75738;DHT22;77420;45.638;13.764;2024-03-25T11:45:21;22.30;36.70
75738;DHT22;77420;45.638;13.764;2024-03-25T11:47:49;22.30;36.80
75738;DHT22;77420;45.638;13.764;2024-03-25T11:50:17;22.30;36.80
75738;DHT22;77420;45.638;13.764;2024-03-25T11:52:43;22.40;36.90
75738;DHT22;77420;45.638;13.764;2024-03-25T11:55:09;22.40;37.10
75738;DHT22;77420;45.638;13.764;2024-03-25T11:57:36;22.40;37.20
75738;DHT22;77420;45.638;13.764;2024-03-25T12:00:02;22.40;37.90
75738;DHT22;77420;45.638;13.764;2024-03-25T12:02:31;22.50;38.50
75738;DHT22;77420;45.638;13.764;2024-03-25T12:04:58;22.50;38.10
75738;DHT22;77420;45.638;13.764;2024-03-25T12:07:25;22.50;37.80
75738;DHT22;77420;45.638;13.764;2024-03-25T12:09:50;22.50;37.60
75738;DHT22;77420;45.638;13.764;2024-03-25T12:12:35;22.50;37.80
75738;DHT22;77420;45.638;13.764;2024-03-25T12:15:01;22.60;37.70
75738;DHT22;77420;45.638;13.764;2024-03-25T12:17:28;22.50;37.60
75738;DHT22;77420;45.638;13.764;2024-03-25T12:20:08;22.50;37.60
75738;DHT22;77420;45.638;13.764;2024-03-25T12:22:35;22.50;37.80
75738;DHT22;77420;45.638;13.764;2024-03-25T12:25:03;22.50;37.50
75738;DHT22;77420;45.638;13.764;2024-03-25T12:27:32;22.50;37.20
75738;DHT22;77420;45.638;13.764;2024-03-25T12:30:05;22.50;37.90
75738;DHT22;77420;45.638;13.764;2024-03-25T12:32:43;22.60;37.40
75738;DHT22;77420;45.638;13.764;2024-03-25T12:35:15;22.60;37.50
75738;DHT22;77420;45.638;13.764;2024-03-25T12:37:42;22.60;37.60
75738;DHT22;77420;45.638;13.764;2024-03-25T12:40:12;22.70;37.60
75738;DHT22;77420;45.638;13.764;2024-03-25T12:42:40;22.70;37.70
75738;DHT22;77420;45.638;13.764;2024-03-25T12:45:07;22.70;37.70
75738;DHT22;77420;45.638;13.764;2024-03-25T12:47:35;22.70;37.90
75738;DHT22;77420;45.638;13.764;2024-03-25T12:50:02;22.80;38.30
75738;DHT22;77420;45.638;13.764;2024-03-25T12:52:29;22.80;37.90
75738;DHT22;77420;45.638;13.764;2024-03-25T12:54:55;22.70;38.80
75738;DHT22;77420;45.638;13.764;2024-03-25T12:57:22;22.80;38.80
75738;DHT22;77420;45.638;13.764;2024-03-25T12:59:47;22.70;37.70
75738;DHT22;77420;45.638;13.764;2024-03-25T13:02:14;22.60;37.40
75738;DHT22;77420;45.638;13.764;2024-03-25T13:04:41;22.50;37.70
75738;DHT22;77420;45.638;13.764;2024-03-25T13:07:08;22.40;37.90
75738;DHT22;77420;45.638;13.764;2024-03-25T13:09:34;22.40;37.10
75738;DHT22;77420;45.638;13.764;2024-03-25T13:12:00;22.30;37.20
75738;DHT22;77420;45.638;13.764;2024-03-25T13:14:25;22.30;37.70
75738;DHT22;77420;45.638;13.764;2024-03-25T13:16:52;22.30;38.40
75738;DHT22;77420;45.638;13.764;2024-03-25T13:19:18;22.40;39.00
75738;DHT22;77420;45.638;13.764;2024-03-25T13:21:44;22.40;39.20
75738;DHT22;77420;45.638;13.764;2024-03-25T13:24:10;22.40;39.00
75738;DHT22;77420;45.638;13.764;2024-03-25T13:26:36;22.50;39.10
75738;DHT22;77420;45.638;13.764;2024-03-25T13:29:02;22.60;40.30
75738;DHT22;77420;45.638;13.764;2024-03-25T13:31:28;22.60;41.70
75738;DHT22;77420;45.638;13.764;2024-03-25T13:33:54;22.60;40.90
75738;DHT22;77420;45.638;13.764;2024-03-25T13:36:20;22.70;40.50
75738;DHT22;77420;45.638;13.764;2024-03-25T13:38:45;22.70;40.90
75738;DHT22;77420;45.638;13.764;2024-03-25T13:41:11;22.70;41.10
75738;DHT22;77420;45.638;13.764;2024-03-25T13:43:42;22.80;42.00
75738;DHT22;77420;45.638;13.764;2024-03-25T13:46:08;22.80;42.30
75738;DHT22;77420;45.638;13.764;2024-03-25T13:48:34;22.90;41.80
75738;DHT22;77420;45.638;13.764;2024-03-25T13:51:00;23.00;41.20
75738;DHT22;77420;45.638;13.764;2024-03-25T13:53:26;23.00;41.50
75738;DHT22;77420;45.638;13.764;2024-03-25T13:55:52;23.00;40.70
75738;DHT22;77420;45.638;13.764;2024-03-25T13:58:19;23.00;40.70
75738;DHT22;77420;45.638;13.764;2024-03-25T14:00:46;23.00;41.00
75738;DHT22;77420;45.638;13.764;2024-03-25T14:03:11;23.10;41.20
75738;DHT22;77420;45.638;13.764;2024-03-25T14:05:37;23.10;41.00
75738;DHT22;77420;45.638;13.764;2024-03-25T14:08:03;23.10;40.10
75738;DHT22;77420;45.638;13.764;2024-03-25T14:10:29;23.10;39.80
75738;DHT22;77420;45.638;13.764;2024-03-25T14:12:55;23.10;41.40
75738;DHT22;77420;45.638;13.764;2024-03-25T14:15:21;23.10;41.00
75738;DHT22;77420;45.638;13.764;2024-03-25T14:17:47;23.20;41.70
75738;DHT22;77420;45.638;13.764;2024-03-25T14:20:13;23.20;41.10
75738;DHT22;77420;45.638;13.764;2024-03-25T14:22:39;23.20;40.40
75738;DHT22;77420;45.638;13.764;2024-03-25T14:25:05;23.20;40.30
75738;DHT22;77420;45.638;13.764;2024-03-25T14:27:31;23.20;40.30
75738;DHT22;77420;45.638;13.764;2024-03-25T14:29:57;23.20;40.60
75738;DHT22;77420;45.638;13.764;2024-03-25T14:32:23;23.30;41.80
75738;DHT22;77420;45.638;13.764;2024-03-25T14:34:50;23.30;42.10
75738;DHT22;77420;45.638;13.764;2024-03-25T14:37:16;23.20;40.50
75738;DHT22;77420;45.638;13.764;2024-03-25T14:39:42;23.20;40.00
75738;DHT22;77420;45.638;13.764;2024-03-25T14:42:08;23.20;40.00
75738;DHT22;77420;45.638;13.764;2024-03-25T14:44:38;23.20;40.80
75738;DHT22;77420;45.638;13.764;2024-03-25T14:47:04;23.10;41.50
75738;DHT22;77420;45.638;13.764;2024-03-25T14:49:30;23.10;42.70
75738;DHT22;77420;45.638;13.764;2024-03-25T14:51:56;23.00;41.20
75738;DHT22;77420;45.638;13.764;2024-03-25T14:54:23;23.00;40.80
75738;DHT22;77420;45.638;13.764;2024-03-25T14:56:49;22.90;43.10
75738;DHT22;77420;45.638;13.764;2024-03-25T14:59:15;22.90;42.90
75738;DHT22;77420;45.638;13.764;2024-03-25T15:01:40;22.90;43.40
75738;DHT22;77420;45.638;13.764;2024-03-25T15:04:08;22.80;43.90
75738;DHT22;77420;45.638;13.764;2024-03-25T15:06:34;22.90;45.50
75738;DHT22;77420;45.638;13.764;2024-03-25T15:09:00;22.80;44.20
75738;DHT22;77420;45.638;13.764;2024-03-25T15:11:26;22.90;43.50
75738;DHT22;77420;45.638;13.764;2024-03-25T15:13:53;22.80;43.40
75738;DHT22;77420;45.638;13.764;2024-03-25T15:16:18;22.90;43.30